sensor_id;sensor_type;location;lat;lon;timestamp;temperature;humidity
24454;DHT22;12627;50.860;5.714;2023-07-28T12:01:21;22.30;99.90
24454;DHT22;12627;50.860;5.714;2023-07-28T12:03:49;22.30;99.90
24454;DHT22;12627;50.860;5.714;2023-07-28T12:06:16;22.50;99.90
24454;DHT22;12627;50.860;5.714;2023-07-28T12:08:43;23.10;99.90
24454;DHT22;12627;50.860;5.714;2023-07-28T12:11:13;22.80;99.90
24454;DHT22;12627;50.860;5.714;2023-07-28T12:13:48;22.60;99.90
24454;DHT22;12627;50.860;5.714;2023-07-28T12:16:40;23.00;99.90
24454;DHT22;12627;50.860;5.714;2023-07-28T12:19:07;23.40;99.90
24454;DHT22;12627;50.860;5.714;2023-07-28T12:21:35;22.90;99.90
24454;DHT22;12627;50.860;5.714;2023-07-28T12:24:02;23.20;99.90
24454;DHT22;12627;50.860;5.714;2023-07-28T12:26:29;23.10;99.90
24454;DHT22;12627;50.860;5.714;2023-07-28T12:28:57;23.50;99.90
24454;DHT22;12627;50.860;5.714;2023-07-28T12:31:24;23.70;99.90
24454;DHT22;12627;50.860;5.714;2023-07-28T12:33:53;23.20;99.90
24454;DHT22;12627;50.860;5.714;2023-07-28T12:36:22;23.00;99.90
24454;DHT22;12627;50.860;5.714;2023-07-28T12:38:50;23.30;99.90
24454;DHT22;12627;50.860;5.714;2023-07-28T12:41:17;23.50;99.90
24454;DHT22;12627;50.860;5.714;2023-07-28T12:43:44;23.70;99.90
24454;DHT22;12627;50.860;5.714;2023-07-28T12:46:12;23.40;99.90
24454;DHT22;12627;50.860;5.714;2023-07-28T12:48:39;23.50;99.90
24454;DHT22;12627;50.860;5.714;2023-07-28T12:51:08;23.80;99.90
24454;DHT22;12627;50.860;5.714;2023-07-28T12:53:35;23.50;99.90
24454;DHT22;12627;50.860;5.714;2023-07-28T12:56:03;23.60;99.90
24454;DHT22;12627;50.860;5.714;2023-07-28T12:58:31;23.60;99.90
24454;DHT22;12627;50.860;5.714;2023-07-28T13:00:59;23.50;99.90
24454;DHT22;12627;50.860;5.714;2023-07-28T13:03:27;23.10;99.90
24454;DHT22;12627;50.860;5.714;2023-07-28T13:05:55;22.70;99.90
24454;DHT22;12627;50.860;5.714;2023-07-28T13:08:23;22.90;99.90
24454;DHT22;12627;50.860;5.714;2023-07-28T13:10:51;23.20;99.90
24454;DHT22;12627;50.860;5.714;2023-07-28T13:13:18;22.90;99.90
24454;DHT22;12627;50.860;5.714;2023-07-28T13:15:46;22.30;99.90
24454;DHT22;12627;50.860;5.714;2023-07-28T13:18:13;22.20;99.90
24454;DHT22;12627;50.860;5.714;2023-07-28T13:20:40;21.90;99.90
24454;DHT22;12627;50.860;5.714;2023-07-28T13:23:08;21.30;99.90
24454;DHT22;12627;50.860;5.714;2023-07-28T13:25:37;20.80;99.90
24454;DHT22;12627;50.860;5.714;2023-07-28T13:28:04;20.50;99.90
24454;DHT22;12627;50.860;5.714;2023-07-28T13:30:32;20.40;99.90
24454;DHT22;12627;50.860;5.714;2023-07-28T13:32:59;20.40;99.90
24454;DHT22;12627;50.860;5.714;2023-07-28T13:35:27;20.20;99.90
24454;DHT22;12627;50.860;5.714;2023-07-28T13:37:55;20.10;99.90
24454;DHT22;12627;50.860;5.714;2023-07-28T13:40:22;20.10;99.90
24454;DHT22;12627;50.860;5.714;2023-07-28T13:42:51;20.10;99.90
24454;DHT22;12627;50.860;5.714;2023-07-28T13:45:19;20.00;99.90
24454;DHT22;12627;50.860;5.714;2023-07-28T13:47:46;20.10;99.90
24454;DHT22;12627;50.860;5.714;2023-07-28T13:50:14;20.30;99.90
24454;DHT22;12627;50.860;5.714;2023-07-28T13:52:42;20.70;99.90
24454;DHT22;12627;50.860;5.714;2023-07-28T13:55:09;21.10;99.90
24454;DHT22;12627;50.860;5.714;2023-07-28T13:57:37;21.20;99.90
24454;DHT22;12627;50.860;5.714;2023-07-28T14:00:08;21.30;99.90
24454;DHT22;12627;50.860;5.714;2023-07-28T14:02:36;21.50;99.90
24454;DHT22;12627;50.860;5.714;2023-07-28T14:05:04;21.40;99.90
24454;DHT22;12627;50.860;5.714;2023-07-28T14:07:32;21.80;99.90
24454;DHT22;12627;50.860;5.714;2023-07-28T14:10:00;21.90;99.90
24454;DHT22;12627;50.860;5.714;2023-07-28T14:12:27;21.50;99.90
24454;DHT22;12627;50.860;5.714;2023-07-28T14:14:55;21.60;99.90
24454;DHT22;12627;50.860;5.714;2023-07-28T14:17:23;21.70;99.90
24454;DHT22;12627;50.860;5.714;2023-07-28T14:19:51;22.00;99.90
24454;DHT22;12627;50.860;5.714;2023-07-28T14:22:18;22.00;99.90
24454;DHT22;12627;50.860;5.714;2023-07-28T14:24:46;22.10;99.90
24454;DHT22;12627;50.860;5.714;2023-07-28T14:27:13;22.60;99.90
24454;DHT22;12627;50.860;5.714;2023-07-28T14:29:40;22.90;99.90
24454;DHT22;12627;50.860;5.714;2023-07-28T14:32:08;23.10;99.90
24454;DHT22;12627;50.860;5.714;2023-07-28T14:34:37;23.40;99.90
24454;DHT22;12627;50.860;5.714;2023-07-28T14:37:05;23.00;99.90
24454;DHT22;12627;50.860;5.714;2023-07-28T14:39:32;22.90;99.90
24454;DHT22;12627;50.860;5.714;2023-07-28T14:42:00;22.90;99.90
24454;DHT22;12627;50.860;5.714;2023-07-28T14:44:27;23.30;99.90
24454;DHT22;12627;50.860;5.714;2023-07-28T14:46:54;23.90;99.90
24454;DHT22;12627;50.860;5.714;2023-07-28T14:49:22;24.20;99.90
24454;DHT22;12627;50.860;5.714;2023-07-28T14:51:55;24.30;99.90
24454;DHT22;12627;50.860;5.714;2023-07-28T14:54:22;24.30;99.90
24454;DHT22;12627;50.860;5.714;2023-07-28T14:56:49;24.00;99.90
24454;DHT22;12627;50.860;5.714;2023-07-28T14:59:17;24.00;99.90
24454;DHT22;12627;50.860;5.714;2023-07-28T15:01:44;24.00;99.90
24454;DHT22;12627;50.860;5.714;2023-07-28T15:04:12;23.90;99.90
24454;DHT22;12627;50.860;5.714;2023-07-28T15:06:41;24.10;99.90
24454;DHT22;12627;50.860;5.714;2023-07-28T15:09:10;24.00;99.90
24454;DHT22;12627;50.860;5.714;2023-07-28T15:11:37;24.00;99.90
24454;DHT22;12627;50.860;5.714;2023-07-28T15:14:04;23.90;99.90
24454;DHT22;12627;50.860;5.714;2023-07-28T15:16:33;24.20;99.90
24454;DHT22;12627;50.860;5.714;2023-07-28T15:19:00;24.10;99.90
24454;DHT22;12627;50.860;5.714;2023-07-28T15:21:27;23.70;99.90
24454;DHT22;12627;50.860;5.714;2023-07-28T15:23:55;23.70;99.90
24454;DHT22;12627;50.860;5.714;2023-07-28T15:26:24;24.00;99.90
24454;DHT22;12627;50.860;5.714;2023-07-28T15:28:51;24.30;99.90
24454;DHT22;12627;50.860;5.714;2023-07-28T15:31:21;24.10;99.90
24454;DHT22;12627;50.860;5.714;2023-07-28T15:33:48;24.20;99.90
24454;DHT22;12627;50.860;5.714;2023-07-28T15:36:16;24.40;99.90
24454;DHT22;12627;50.860;5.714;2023-07-28T15:38:43;24.30;99.90
24454;DHT22;12627;50.860;5.714;2023-07-28T15:41:11;24.20;99.90
24454;DHT22;12627;50.860;5.714;2023-07-28T15:43:40;24.20;99.90
24454;DHT22;12627;50.860;5.714;2023-07-28T15:46:09;24.30;99.90
24454;DHT22;12627;50.860;5.714;2023-07-28T15:48:37;24.50;99.90
24454;DHT22;12627;50.860;5.714;2023-07-28T15:51:04;24.50;99.90
24454;DHT22;12627;50.860;5.714;2023-07-28T15:53:32;24.50;99.90
24454;DHT22;12627;50.860;5.714;2023-07-28T15:55:59;24.80;99.90
24454;DHT22;12627;50.860;5.714;2023-07-28T15:58:26;24.90;99.90
24454;DHT22;12627;50.860;5.714;2023-07-28T16:00:55;25.30;99.90
24454;DHT22;12627;50.860;5.714;2023-07-28T16:03:23;25.20;99.90
24454;DHT22;12627;50.860;5.714;2023-07-28T16:05:50;24.80;99.90
24454;DHT22;12627;50.860;5.714;2023-07-28T16:08:18;24.70;99.90
24454;DHT22;12627;50.860;5.714;2023-07-28T16:10:46;24.80;99.90
24454;DHT22;12627;50.860;5.714;2023-07-28T16:13:13;25.00;99.90
24454;DHT22;12627;50.860;5.714;2023-07-28T16:15:41;25.10;99.90
24454;DHT22;12627;50.860;5.714;2023-07-28T16:18:09;25.00;99.90
24454;DHT22;12627;50.860;5.714;2023-07-28T16:20:37;25.00;99.90
24454;DHT22;12627;50.860;5.714;2023-07-28T16:23:04;25.40;99.90
24454;DHT22;12627;50.860;5.714;2023-07-28T16:25:32;25.20;99.90
24454;DHT22;12627;50.860;5.714;2023-07-28T16:27:59;25.10;99.90
24454;DHT22;12627;50.860;5.714;2023-07-28T16:30:26;25.60;99.90
24454;DHT22;12627;50.860;5.714;2023-07-28T16:32:54;25.90;99.90
24454;DHT22;12627;50.860;5.714;2023-07-28T16:35:22;26.00;99.90
24454;DHT22;12627;50.860;5.714;2023-07-28T16:37:50;25.90;99.90
24454;DHT22;12627;50.860;5.714;2023-07-28T16:40:17;26.40;99.90
24454;DHT22;12627;50.860;5.714;2023-07-28T16:42:45;26.50;99.90
24454;DHT22;12627;50.860;5.714;2023-07-28T16:45:12;26.30;99.90
24454;DHT22;12627;50.860;5.714;2023-07-28T16:47:39;26.20;99.90
24454;DHT22;12627;50.860;5.714;2023-07-28T16:50:07;26.60;99.90
24454;DHT22;12627;50.860;5.714;2023-07-28T16:52:36;26.90;99.90
24454;DHT22;12627;50.860;5.714;2023-07-28T16:55:04;26.50;99.90
24454;DHT22;12627;50.860;5.714;2023-07-28T16:57:32;26.20;99.90
24454;DHT22;12627;50.860;5.714;2023-07-28T16:59:59;26.20;99.90
24454;DHT22;12627;50.860;5.714;2023-07-28T17:02:26;25.80;99.90
24454;DHT22;12627;50.860;5.714;2023-07-28T17:04:53;26.00;99.90
24454;DHT22;12627;50.860;5.714;2023-07-28T17:07:21;26.40;99.90
24454;DHT22;12627;50.860;5.714;2023-07-28T17:09:50;26.70;99.90
24454;DHT22;12627;50.860;5.714;2023-07-28T17:12:17;26.60;99.90
24454;DHT22;12627;50.860;5.714;2023-07-28T17:14:44;26.30;99.90
24454;DHT22;12627;50.860;5.714;2023-07-28T17:17:12;26.40;99.90
24454;DHT22;12627;50.860;5.714;2023-07-28T17:19:39;26.10;99.90
24454;DHT22;12627;50.860;5.714;2023-07-28T17:22:06;26.00;99.90
24454;DHT22;12627;50.860;5.714;2023-07-28T17:24:34;26.10;99.90
24454;DHT22;12627;50.860;5.714;2023-07-28T17:27:03;26.20;99.90
24454;DHT22;12627;50.860;5.714;2023-07-28T17:29:30;26.10;99.90
24454;DHT22;12627;50.860;5.714;2023-07-28T17:31:58;25.60;99.90
24454;DHT22;12627;50.860;5.714;2023-07-28T17:34:25;24.90;99.90
24454;DHT22;12627;50.860;5.714;2023-07-28T17:36:52;24.50;99.90
24454;DHT22;12627;50.860;5.714;2023-07-28T17:39:20;24.50;99.90
24454;DHT22;12627;50.860;5.714;2023-07-28T17:41:47;24.40;99.90
24454;DHT22;12627;50.860;5.714;2023-07-28T17:44:16;24.70;99.90
24454;DHT22;12627;50.860;5.714;2023-07-28T17:46:43;25.20;99.90
24454;DHT22;12627;50.860;5.714;2023-07-28T17:49:11;25.00;99.90
24454;DHT22;12627;50.860;5.714;2023-07-28T17:51:38;24.80;99.90
24454;DHT22;12627;50.860;5.714;2023-07-28T17:54:05;24.50;99.90
24454;DHT22;12627;50.860;5.714;2023-07-28T17:56:33;24.30;99.90
24454;DHT22;12627;50.860;5.714;2023-07-28T17:59:00;24.10;99.90
24454;DHT22;12627;50.860;5.714;2023-07-28T18:01:29;24.00;99.90
24454;DHT22;12627;50.860;5.714;2023-07-28T18:03:56;23.80;99.90
24454;DHT22;12627;50.860;5.714;2023-07-28T18:06:23;23.70;99.90
24454;DHT22;12627;50.860;5.714;2023-07-28T18:08:51;23.60;99.90
24454;DHT22;12627;50.860;5.714;2023-07-28T18:11:18;23.50;99.90
24454;DHT22;12627;50.860;5.714;2023-07-28T18:13:46;23.50;99.90
24454;DHT22;12627;50.860;5.714;2023-07-28T18:16:13;23.50;99.90
24454;DHT22;12627;50.860;5.714;2023-07-28T18:18:42;23.40;99.90
24454;DHT22;12627;50.860;5.714;2023-07-28T18:21:09;23.20;99.90
24454;DHT22;12627;50.860;5.714;2023-07-28T18:23:36;20.30;99.90
24454;DHT22;12627;50.860;5.714;2023-07-28T18:26:04;20.20;99.90
24454;DHT22;12627;50.860;5.714;2023-07-28T18:28:31;20.30;99.90
24454;DHT22;12627;50.860;5.714;2023-07-28T18:30:58;20.30;99.90
24454;DHT22;12627;50.860;5.714;2023-07-28T18:33:26;20.20;99.90
24454;DHT22;12627;50.860;5.714;2023-07-28T18:35:54;20.20;99.90
24454;DHT22;12627;50.860;5.714;2023-07-28T18:38:22;20.40;99.90
24454;DHT22;12627;50.860;5.714;2023-07-28T18:40:49;20.20;99.90
24454;DHT22;12627;50.860;5.714;2023-07-28T18:43:16;20.30;99.90
24454;DHT22;12627;50.860;5.714;2023-07-28T18:45:43;20.30;99.90
24454;DHT22;12627;50.860;5.714;2023-07-28T18:48:11;20.20;99.90
24454;DHT22;12627;50.860;5.714;2023-07-28T18:50:38;20.20;99.90
24454;DHT22;12627;50.860;5.714;2023-07-28T18:53:08;20.30;99.90
24454;DHT22;12627;50.860;5.714;2023-07-28T18:55:36;20.30;99.90
24454;DHT22;12627;50.860;5.714;2023-07-28T18:58:03;20.20;99.90
24454;DHT22;12627;50.860;5.714;2023-07-28T19:00:31;20.20;99.90
24454;DHT22;12627;50.860;5.714;2023-07-28T19:02:58;20.30;99.90
24454;DHT22;12627;50.860;5.714;2023-07-28T19:05:25;20.20;99.90
24454;DHT22;12627;50.860;5.714;2023-07-28T19:07:53;20.30;99.90
24454;DHT22;12627;50.860;5.714;2023-07-28T19:10:22;20.30;99.90
24454;DHT22;12627;50.860;5.714;2023-07-28T19:12:49;20.40;99.90
24454;DHT22;12627;50.860;5.714;2023-07-28T19:15:16;20.40;99.90
24454;DHT22;12627;50.860;5.714;2023-07-28T19:17:44;20.30;99.90
24454;DHT22;12627;50.860;5.714;2023-07-28T19:20:13;20.30;99.90
24454;DHT22;12627;50.860;5.714;2023-07-28T19:22:45;20.20;99.90
24454;DHT22;12627;50.860;5.714;2023-07-28T19:25:13;20.20;99.90
24454;DHT22;12627;50.860;5.714;2023-07-28T19:27:42;20.10;99.90
24454;DHT22;12627;50.860;5.714;2023-07-28T19:30:10;20.00;99.90
24454;DHT22;12627;50.860;5.714;2023-07-28T19:32:38;20.10;99.90
24454;DHT22;12627;50.860;5.714;2023-07-28T19:35:07;20.10;99.90
24454;DHT22;12627;50.860;5.714;2023-07-28T19:37:34;20.00;99.90
24454;DHT22;12627;50.860;5.714;2023-07-28T19:40:02;20.20;99.90
24454;DHT22;12627;50.860;5.714;2023-07-28T19:42:29;20.10;99.90
24454;DHT22;12627;50.860;5.714;2023-07-28T19:44:58;20.00;99.90
24454;DHT22;12627;50.860;5.714;2023-07-28T19:47:26;20.10;99.90
24454;DHT22;12627;50.860;5.714;2023-07-28T19:49:53;20.00;99.90
24454;DHT22;12627;50.860;5.714;2023-07-28T19:52:21;20.00;99.90
24454;DHT22;12627;50.860;5.714;2023-07-28T19:54:49;20.00;99.90
24454;DHT22;12627;50.860;5.714;2023-07-28T19:57:16;20.10;99.90
24454;DHT22;12627;50.860;5.714;2023-07-28T19:59:43;20.10;99.90
24454;DHT22;12627;50.860;5.714;2023-07-28T20:02:12;20.00;99.90
24454;DHT22;12627;50.860;5.714;2023-07-28T20:04:39;20.10;99.90
24454;DHT22;12627;50.860;5.714;2023-07-28T20:07:07;20.00;99.90
24454;DHT22;12627;50.860;5.714;2023-07-28T20:09:34;20.00;99.90
24454;DHT22;12627;50.860;5.714;2023-07-28T20:12:01;20.00;99.90
24454;DHT22;12627;50.860;5.714;2023-07-28T20:14:30;20.00;99.90
24454;DHT22;12627;50.860;5.714;2023-07-28T20:16:58;20.00;99.90
24454;DHT22;12627;50.860;5.714;2023-07-28T20:19:26;19.90;99.90
24454;DHT22;12627;50.860;5.714;2023-07-28T20:21:54;19.90;99.90
24454;DHT22;12627;50.860;5.714;2023-07-28T20:24:21;19.90;99.90
24454;DHT22;12627;50.860;5.714;2023-07-28T20:26:48;19.80;99.90
24454;DHT22;12627;50.860;5.714;2023-07-28T20:29:16;19.80;99.90
24454;DHT22;12627;50.860;5.714;2023-07-28T20:31:43;19.80;99.90
24454;DHT22;12627;50.860;5.714;2023-07-28T20:34:10;19.80;99.90
24454;DHT22;12627;50.860;5.714;2023-07-28T20:36:39;19.80;99.90
24454;DHT22;12627;50.860;5.714;2023-07-28T20:39:07;19.80;99.90
24454;DHT22;12627;50.860;5.714;2023-07-28T20:41:34;19.80;99.90
24454;DHT22;12627;50.860;5.714;2023-07-28T20:44:01;19.80;99.90
24454;DHT22;12627;50.860;5.714;2023-07-28T20:46:28;19.70;99.90
24454;DHT22;12627;50.860;5.714;2023-07-28T20:48:56;19.70;99.90
24454;DHT22;12627;50.860;5.714;2023-07-28T20:51:23;19.70;99.90
24454;DHT22;12627;50.860;5.714;2023-07-28T20:53:52;19.70;99.90
24454;DHT22;12627;50.860;5.714;2023-07-28T20:56:19;19.70;99.90
24454;DHT22;12627;50.860;5.714;2023-07-28T20:58:46;19.60;99.90
24454;DHT22;12627;50.860;5.714;2023-07-28T21:01:14;19.50;99.90
24454;DHT22;12627;50.860;5.714;2023-07-28T21:03:41;19.80;99.90
24454;DHT22;12627;50.860;5.714;2023-07-28T21:06:09;19.60;99.90
24454;DHT22;12627;50.860;5.714;2023-07-28T21:08:36;19.60;99.90
24454;DHT22;12627;50.860;5.714;2023-07-28T21:11:04;19.60;99.90
24454;DHT22;12627;50.860;5.714;2023-07-28T21:13:32;19.60;99.90
24454;DHT22;12627;50.860;5.714;2023-07-28T21:15:59;19.60;99.90
24454;DHT22;12627;50.860;5.714;2023-07-28T21:18:29;19.70;99.90
24454;DHT22;12627;50.860;5.714;2023-07-28T21:20:57;19.60;99.90
24454;DHT22;12627;50.860;5.714;2023-07-28T21:23:24;19.60;99.90
24454;DHT22;12627;50.860;5.714;2023-07-28T21:25:52;19.60;99.90
24454;DHT22;12627;50.860;5.714;2023-07-28T21:28:20;19.60;99.90
24454;DHT22;12627;50.860;5.714;2023-07-28T21:30:48;19.40;99.90
24454;DHT22;12627;50.860;5.714;2023-07-28T21:33:15;19.50;99.90
24454;DHT22;12627;50.860;5.714;2023-07-28T21:35:43;19.60;99.90
24454;DHT22;12627;50.860;5.714;2023-07-28T21:38:10;19.50;99.90
24454;DHT22;12627;50.860;5.714;2023-07-28T21:40:37;19.70;99.90
24454;DHT22;12627;50.860;5.714;2023-07-28T21:43:05;19.60;99.90
24454;DHT22;12627;50.860;5.714;2023-07-28T21:45:34;19.70;99.90
24454;DHT22;12627;50.860;5.714;2023-07-28T21:48:01;19.50;99.90
24454;DHT22;12627;50.860;5.714;2023-07-28T21:50:28;19.60;99.90
24454;DHT22;12627;50.860;5.714;2023-07-28T21:52:56;19.60;99.90
24454;DHT22;12627;50.860;5.714;2023-07-28T21:55:23;19.70;99.90
24454;DHT22;12627;50.860;5.714;2023-07-28T21:57:50;19.70;99.90
24454;DHT22;12627;50.860;5.714;2023-07-28T22:00:17;19.60;99.90
24454;DHT22;12627;50.860;5.714;2023-07-28T22:02:46;19.50;99.90
24454;DHT22;12627;50.860;5.714;2023-07-28T22:05:13;19.60;99.90
24454;DHT22;12627;50.860;5.714;2023-07-28T22:07:41;19.60;99.90
24454;DHT22;12627;50.860;5.714;2023-07-28T22:10:09;19.30;99.90
24454;DHT22;12627;50.860;5.714;2023-07-28T22:12:36;19.30;99.90
24454;DHT22;12627;50.860;5.714;2023-07-28T22:15:04;19.40;99.90
24454;DHT22;12627;50.860;5.714;2023-07-28T22:17:31;19.50;99.90
24454;DHT22;12627;50.860;5.714;2023-07-28T22:20:00;19.40;99.90
24454;DHT22;12627;50.860;5.714;2023-07-28T22:22:27;19.40;99.90
24454;DHT22;12627;50.860;5.714;2023-07-28T22:24:54;19.40;99.90
24454;DHT22;12627;50.860;5.714;2023-07-28T22:27:22;19.30;99.90
24454;DHT22;12627;50.860;5.714;2023-07-28T22:29:49;19.20;99.90
24454;DHT22;12627;50.860;5.714;2023-07-28T22:32:18;19.30;99.90
24454;DHT22;12627;50.860;5.714;2023-07-28T22:34:46;19.20;99.90
24454;DHT22;12627;50.860;5.714;2023-07-28T22:37:15;19.20;99.90
24454;DHT22;12627;50.860;5.714;2023-07-28T22:39:42;19.20;99.90
24454;DHT22;12627;50.860;5.714;2023-07-28T22:42:09;19.30;99.90
24454;DHT22;12627;50.860;5.714;2023-07-28T22:44:37;19.20;99.90
24454;DHT22;12627;50.860;5.714;2023-07-28T22:47:04;19.20;99.90
24454;DHT22;12627;50.860;5.714;2023-07-28T22:49:31;19.20;99.90
24454;DHT22;12627;50.860;5.714;2023-07-28T22:51:59;19.20;99.90
24454;DHT22;12627;50.860;5.714;2023-07-28T22:54:28;19.20;99.90
24454;DHT22;12627;50.860;5.714;2023-07-28T22:56:55;19.20;99.90
24454;DHT22;12627;50.860;5.714;2023-07-28T22:59:23;19.30;99.90
24454;DHT22;12627;50.860;5.714;2023-07-28T23:01:50;19.40;99.90
24454;DHT22;12627;50.860;5.714;2023-07-28T23:04:18;19.30;99.90
24454;DHT22;12627;50.860;5.714;2023-07-28T23:06:45;19.30;99.90
24454;DHT22;12627;50.860;5.714;2023-07-28T23:09:13;19.50;99.90
24454;DHT22;12627;50.860;5.714;2023-07-28T23:11:41;19.50;99.90
24454;DHT22;12627;50.860;5.714;2023-07-28T23:14:09;19.40;99.90
24454;DHT22;12627;50.860;5.714;2023-07-28T23:16:37;19.40;99.90
24454;DHT22;12627;50.860;5.714;2023-07-28T23:19:05;19.40;99.90
24454;DHT22;12627;50.860;5.714;2023-07-28T23:21:32;19.50;99.90
24454;DHT22;12627;50.860;5.714;2023-07-28T23:23:59;19.50;99.90
24454;DHT22;12627;50.860;5.714;2023-07-28T23:26:27;19.40;99.90
24454;DHT22;12627;50.860;5.714;2023-07-28T23:28:57;19.40;99.90
24454;DHT22;12627;50.860;5.714;2023-07-28T23:31:24;19.40;99.90
24454;DHT22;12627;50.860;5.714;2023-07-28T23:33:53;19.60;99.90
24454;DHT22;12627;50.860;5.714;2023-07-28T23:36:22;19.60;99.90
24454;DHT22;12627;50.860;5.714;2023-07-28T23:38:49;19.60;99.90
24454;DHT22;12627;50.860;5.714;2023-07-28T23:41:16;19.60;99.90
24454;DHT22;12627;50.860;5.714;2023-07-28T23:43:44;19.50;99.90
24454;DHT22;12627;50.860;5.714;2023-07-28T23:46:12;19.50;99.90
24454;DHT22;12627;50.860;5.714;2023-07-28T23:48:40;19.50;99.90
24454;DHT22;12627;50.860;5.714;2023-07-28T23:51:07;19.50;99.90
24454;DHT22;12627;50.860;5.714;2023-07-28T23:53:34;19.50;99.90
24454;DHT22;12627;50.860;5.714;2023-07-28T23:56:02;19.40;99.90
24454;DHT22;12627;50.860;5.714;2023-07-28T23:58:29;19.60;99.90
